• Join FlightAware (Why Join?)
  • Login
  • US Flag 
03:05PM EST


 

Airport Tracker/Info


-or-


 

Live Flight TrackerFlight Track Log ✈ QFA1129 ✈ 05-Nov-2013 ✈ YPPD / PHE - YPPH / PER

Flight Track Log - Related Links

Times and Time Zones

All times are in EST time to prevent confusion due to time zone crossing. See the QFA1129 flight status page for this flight to view local times or setup timezone preferences in your user account.

Time Position Orientation Groundspeed Altitude Reporting Facility
EST Latitude Longitude Course Direction KTS MPH feet Rate Location/Type
12:41AM -20.3790 118.6260 223° Southwest 150 173  Level FlightAware
12:41AM -20.4810 118.6076 North 37,400 2,400 Climbing Aus ATC (Calculated)
12:42AM -20.3650 118.6110 223° Southwest 159 183 1,100 -45,240 Descending FlightAware
12:42AM -20.5776 118.5899 North 37,400 1,920 Climbing Aus ATC (Calculated)
12:42AM -20.3720 118.5920 249° West 176 203 2,000 -87,000 Descending FlightAware
12:42AM -20.3850 118.5870 249° West 190 219 2,600 1,680 Climbing FlightAware
12:43AM -20.5776 118.5899 North 37,400 1,440 Climbing Aus ATC (Calculated)
12:43AM -20.4180 118.5970 164° South 238 274 3,400 -49,800 Descending FlightAware
12:44AM -20.4500 118.6070 164° South 278 320 4,200 1,680 Climbing FlightAware
12:44AM -20.4590 118.6070 180° South 286 329 4,400 3,300 Climbing FlightAware
12:44AM -20.5180 118.5970 189° South 282 325 7,100 3,180 Climbing FlightAware
12:45AM -20.5600 118.5900 189° South 291 335 8,600 2,880 Climbing FlightAware
12:45AM -20.8495 118.5401 North 37,400 3,120 Climbing Aus ATC (Calculated)
12:45AM -20.5910 118.5840 190° South 296 341 9,800 -23,280 Descending FlightAware
12:46AM -20.8495 118.5401 North 37,400 3,000 Climbing Aus ATC (Calculated)
12:46AM -20.6730 118.5690 190° South 329 379 12,600 -21,180 Descending FlightAware
12:47AM -20.7280 118.5600 189° South 333 383 14,500 3,360 Climbing FlightAware
12:47AM -20.7710 118.5520 190° South 334 384 16,200 3,060 Climbing FlightAware
12:48AM -20.8770 118.5330 190° South 352 405 19,400 1,980 Climbing FlightAware
12:49AM -20.9510 118.5190 190° South 370 426 20,000 1,200 Climbing Aus ATC (RADAR)
12:49AM -20.9660 118.5160 190° South 397 457 20,500 2,400 Climbing FlightAware
12:49AM -20.9779 118.5141 190° South 379 436 20,600 2,340 Climbing Aus ATC (RADAR)
12:50AM -21.0200 118.5070 190° South 402 463 21,600 2,280 Climbing FlightAware
12:50AM -21.0425 118.5013 190° South 392 451 21,900 2,220 Climbing Aus ATC (RADAR)
12:51AM -21.1250 118.4880 190° South 414 476 23,700 2,100 Climbing FlightAware
12:51AM -21.1745 118.4772 190° South 405 466 24,400 2,040 Climbing Aus ATC (RADAR)
12:51AM -21.1790 118.4780 190° South 418 481 24,700 2,160 Climbing FlightAware
12:52AM -21.2224 118.4682 190° South 409 471 25,300 1,860 Climbing Aus ATC (RADAR)
12:52AM -21.2907 118.4574 190° South 414 476 26,500 2,280 Climbing Aus ATC (RADAR)
12:52AM -21.3060 118.4540 190° South 426 490 26,900 1,200 Climbing FlightAware
12:53AM -21.3687 118.4418 190° South 420 483 27,300 1,020 Climbing Aus ATC (RADAR)
12:53AM -21.3740 118.4420 190° South 432 497 27,500 1,740 Climbing FlightAware
12:53AM -21.4380 118.4296 190° South 423 487 28,300 1,920 Climbing Aus ATC (RADAR)
12:53AM -21.4480 118.4290 190° South 435 501 28,700 1,920 Climbing FlightAware
12:54AM -21.5120 118.4170 190° South 441 507 29,500 1,140 Climbing FlightAware
12:54AM -21.5179 118.4144 190° South 429 494 29,400 1,080 Descending Aus ATC (RADAR)
12:55AM -21.5897 118.4020 190° South 438 504 30,200 1,380 Climbing Aus ATC (RADAR)
12:55AM -21.6622 118.3896 189° South 444 511 31,000 1,680 Climbing Aus ATC (RADAR)
12:55AM -21.6680 118.3880 189° South 454 522 31,300 2,460 Climbing FlightAware
12:56AM -21.7100 118.3810 189° South 451 519 32,000 1,680 Climbing FlightAware
12:56AM -21.7752 118.3679 189° South 441 507 32,800 1,740 Climbing Aus ATC (RADAR)
12:56AM -21.7970 118.3650 190° South 448 516 33,200 1,440 Climbing FlightAware
12:57AM -21.8262 118.3583 190° South 440 506 33,400 1,440 Climbing Aus ATC (RADAR)
12:57AM -21.8975 118.3451 190° South 438 504 34,400 1,860 Climbing Aus ATC (RADAR)
12:57AM -21.9180 118.3420 190° South 446 513 34,800 1,380 Climbing FlightAware
12:58AM -21.9850 118.3300 190° South 449 517 35,400 840 Climbing FlightAware
12:58AM -21.9898 118.3283 190° South 440 506 35,300 900 Descending Aus ATC (RADAR)
12:58AM -22.0507 118.3171 190° South 442 509 35,900 1,260 Climbing Aus ATC (RADAR)
12:59AM -22.0870 118.3110 190° South 453 521 36,300 1,020 Climbing FlightAware
12:59AM -22.1231 118.3038 190° South 445 512 36,500  Climbing Aus ATC (RADAR)
12:59AM -22.1350 118.3030 190° South 453 521 36,300 1,200 Descending FlightAware
12:59AM -22.1851 118.2923 190° South 446 513 37,100 2,040 Climbing Aus ATC (RADAR)
01:00AM -22.2140 118.2880 190° South 453 521 37,500 1,200 Climbing FlightAware
01:00AM -22.2674 118.2772 190° South 444 511 37,900  Climbing Aus ATC (RADAR)
01:01AM -22.3230 118.2690 190° South 453 521 37,500 -120 Descending FlightAware
01:01AM -22.3904 118.2544 190° South 443 510 37,800  Climbing Aus ATC (RADAR)
01:01AM -22.3860 118.2580 190° South 453 521 37,500  Descending FlightAware
01:01AM -22.4312 118.2464 190° South 443 510 37,800 360 Climbing Aus ATC (RADAR)
01:02AM -22.5125 118.2307 190° South 442 509 37,800 -480 Level Aus ATC (RADAR)
01:02AM -22.4710 118.2440 190° South 453 521 37,500  Descending FlightAware
01:03AM -22.6052 118.2149 190° South 443 510 37,800  Climbing Aus ATC (RADAR)
01:03AM -22.5760 118.2260 190° South 453 521 37,500  Descending FlightAware
01:03AM -22.6767 118.2018 190° South 443 510 37,800  Climbing Aus ATC (RADAR)
01:04AM -22.6180 118.2180 190° South 453 521 37,500  Descending FlightAware
01:04AM -22.7681 118.1848 190° South 441 507 37,800  Climbing Aus ATC (RADAR)
01:05AM -22.7240 118.2000 190° South 453 521 37,500 240 Descending FlightAware
01:05AM -22.8088 118.1772 190° South 442 509 37,900  Climbing Aus ATC (RADAR)
01:05AM -22.7870 118.1890 190° South 453 521 37,500  Descending FlightAware
01:05AM -22.8900 118.1619 190° South 440 506 37,900  Climbing Aus ATC (RADAR)
01:06AM -22.8930 118.1710 190° South 453 521 37,500  Descending FlightAware
01:06AM -23.0220 118.1374 190° South 440 506 37,900  Climbing Aus ATC (RADAR)
01:07AM -22.9350 118.1640 190° South 453 521 37,500  Descending FlightAware
01:07AM -23.0727 118.1282 190° South 441 507 37,900 660 Climbing Aus ATC (RADAR)
01:07AM -23.1439 118.1152 190° South 441 507 38,000 -660 Climbing Aus ATC (RADAR)
01:07AM -23.0200 118.1490 190° South 453 521 37,500 -780 Descending FlightAware
01:08AM -23.0830 118.1390 190° South 453 521 37,500 540 Level FlightAware
01:08AM -23.2352 118.0982 190° South 442 509 37,900  Climbing Aus ATC (RADAR)
01:09AM -23.1460 118.1280 190° South 453 521 37,500  Descending FlightAware
01:09AM -23.3064 118.0849 190° South 442 509 37,900  Climbing Aus ATC (RADAR)
01:09AM -23.1880 118.1200 190° South 453 521 37,500 120 Descending FlightAware
01:09AM -23.4079 118.0660 190° South 440 506 38,000 420 Climbing Aus ATC (RADAR)
01:10AM -23.4586 118.0565 190° South 441 507 37,900  Descending Aus ATC (RADAR)
01:10AM -23.5299 118.0429 190° South 442 509 38,000 60 Climbing Aus ATC (RADAR)
01:11AM -23.6522 118.0196 190° South 444 511 38,000  Level Aus ATC (RADAR)
01:12AM -23.6829 118.0139 190° South 444 511 38,000 -120 Level Aus ATC (RADAR)
01:12AM -23.7545 117.9999 190° South 446 513 37,900  Descending Aus ATC (RADAR)
01:13AM -23.8465 117.9824 190° South 444 511 38,000 60 Climbing Aus ATC (RADAR)
01:14AM -23.9076 117.9705 190° South 445 512 38,000  Level Aus ATC (RADAR)
01:14AM -23.9893 117.9552 190° South 444 511 38,000  Level Aus ATC (RADAR)
01:15AM -24.0509 117.9435 190° South 445 512 38,000  Level Aus ATC (RADAR)
01:15AM -24.1331 117.9279 190° South 447 514 38,000  Level Aus ATC (RADAR)
01:16AM -24.2669 117.9015 190° South 449 517 38,000 -120 Level Aus ATC (RADAR)
01:17AM -24.2976 117.8959 189° South 448 516 37,900 -120 Descending Aus ATC (RADAR)
01:17AM -24.3693 117.8830 189° South 446 513 37,900  Level Aus ATC (RADAR)
01:18AM -24.4614 117.8646 190° South 446 513 37,900  Level Aus ATC (RADAR)
01:19AM -24.5429 117.8496 189° South 444 511 37,900 60 Level Aus ATC (RADAR)
01:20AM -24.6450 117.8303 190° South 444 511 38,000 60 Climbing Aus ATC (RADAR)
01:20AM -24.6860 117.8217 191° South 446 513 38,000  Level Aus ATC (RADAR)
01:20AM -24.7575 117.8071 191° South 447 514 38,000  Level Aus ATC (RADAR)
01:22AM -24.8912 117.7814 190° South 449 517 38,000  Level Aus ATC (RADAR)
01:22AM -24.9427 117.7718 190° South 450 518 38,000  Level Aus ATC (RADAR)
01:22AM -24.9810 117.7640 190° South 452 520 38,000  Level FlightAware
01:23AM -25.0149 117.7572 190° South 450 518 38,000  Level Aus ATC (RADAR)
01:23AM -25.0810 117.7460 190° South 452 520 38,000  Level FlightAware
01:23AM -25.1079 117.7400 190° South 450 518 38,000  Level Aus ATC (RADAR)
01:24AM -25.1450 117.7340 190° South 452 520 38,000  Level FlightAware
01:24AM -25.1802 117.7273 190° South 450 518 38,000  Level Aus ATC (RADAR)
01:24AM -25.2300 117.7160 191° South 450 518 38,000  Level FlightAware
01:25AM -25.3050 117.7020 191° South 451 519 38,000  Level FlightAware
01:25AM -25.3235 117.7002 191° South 448 516 38,000  Level Aus ATC (RADAR)
01:26AM -25.3956 117.6855 191° South 450 518 38,000  Level Aus ATC (RADAR)
01:26AM -25.3980 117.6830 191° South 451 519 38,000  Level FlightAware
01:27AM -25.5093 117.6622 191° South 452 520 38,000  Level Aus ATC (RADAR)
01:27AM -25.5370 117.6560 191° South 454 522 38,000  Level FlightAware
01:27AM -25.5930 117.6450 190° South 456 525 38,000  Level FlightAware
01:28AM -25.7100 117.6230 190° South 457 526 38,000  Level FlightAware
01:28AM -25.7485 117.6166 190° South 455 524 38,000  Level Aus ATC (RADAR)
01:29AM -25.7870 117.6080 190° South 450 518 38,000  Level FlightAware
01:29AM -25.8205 117.6010 190° South 451 519 38,000  Level Aus ATC (RADAR)
01:30AM -25.9120 117.5830 190° South 449 517 38,000  Level FlightAware
01:30AM -25.9122 117.5827 190° South 447 514 38,000  Level Aus ATC (RADAR)
01:30AM -25.9780 117.5700 190° South 448 516 38,000  Level FlightAware
01:31AM -26.0400 117.5580 190° South 449 517 38,000  Level FlightAware
01:31AM -26.1200 117.5420 190° South 448 516 38,000  Level FlightAware
01:32AM -26.1577 117.5343 190° South 448 516 38,000  Level Aus ATC (RADAR)
01:32AM -26.2088 117.5240 190° South 447 514 38,000  Level Aus ATC (RADAR)
01:32AM -26.2220 117.5220 190° South 448 516 38,000  Level FlightAware
01:32AM -26.2350 117.5190 192° South 448 516 38,000  Level FlightAware
01:33AM -26.3430 117.4980 192° South 448 516 38,000  Level FlightAware
01:34AM -26.3723 117.4928 192° South 446 513 38,000  Level Aus ATC (RADAR)
01:34AM -26.4538 117.4764 192° South 446 513 38,000  Level Aus ATC (RADAR)
01:34AM -26.4930 117.4680 192° South 444 511 38,000  Level FlightAware
01:35AM -26.5500 117.4570 190° South 441 507 38,000  Level FlightAware
01:36AM -26.6530 117.4370 190° South 439 505 38,000  Level FlightAware
01:36AM -26.6653 117.4340 190° South 439 505 38,000  Level Aus ATC (RADAR)
01:36AM -26.7190 117.4240 190° South 439 505 38,000  Level FlightAware
01:37AM -26.7653 117.4151 190° South 438 504 38,000  Level Aus ATC (RADAR)
01:37AM -26.7930 117.4090 190° South 438 504 38,000  Level FlightAware
01:37AM -26.8153 117.4052 190° South 437 503 38,000  Level Aus ATC (RADAR)
01:38AM -26.8552 117.3970 190° South 437 503 38,000  Level Aus ATC (RADAR)
01:38AM -26.8730 117.3930 190° South 436 502 38,000  Level FlightAware
01:38AM -26.9150 117.3840 191° South 436 502 38,000  Level FlightAware
01:39AM -26.9845 117.3777 191° South 433 498 38,000  Level Aus ATC (RADAR)
01:39AM -26.9800 117.3720 191° South 436 502 38,000  Level FlightAware
01:39AM -27.0533 117.3618 191° South 433 498 38,000  Level Aus ATC (RADAR)
01:39AM -27.0890 117.3500 191° South 430 495 38,000  Level FlightAware
01:40AM -27.1770 117.3320 190° South 428 493 38,000  Level FlightAware
01:41AM -27.2380 117.3190 191° South 426 490 38,000  Level FlightAware
01:41AM -27.3140 117.3040 191° South 425 489 38,000  Level FlightAware
01:42AM -27.3835 117.2824 138° Southeast 40,000  Climbing Aus ATC (Calculated)
01:42AM -27.3900 117.2890 190° South 425 489 38,000 -1,740 Descending FlightAware
01:43AM -27.4880 117.2690 190° South 426 490 38,000  Level FlightAware
01:43AM -27.5460 117.2580 190° South 426 490 38,000  Level FlightAware
01:44AM -27.6103 117.2406 175° South 40,000  Climbing Aus ATC (Calculated)
01:44AM -27.6250 117.2420 190° South 426 490 38,000 -2,640 Descending FlightAware
01:45AM -27.7114 117.2100 190° South 425 489 38,000  Level Aus ATC (RADAR)
01:45AM -27.6840 117.2310 190° South 426 490 38,000  Level FlightAware
01:45AM -27.7440 117.2190 190° South 426 490 38,000  Level FlightAware
01:46AM -27.7830 117.2110 190° South 426 490 38,000  Level FlightAware
01:47AM -27.9440 117.1657 190° South 422 486 38,000  Level Aus ATC (RADAR)
01:47AM -27.8840 117.1910 192° South 426 490 38,000  Level FlightAware
01:47AM -27.9724 117.1587 192° South 421 484 38,000  Level Aus ATC (RADAR)
01:47AM -27.9430 117.1790 192° South 426 490 38,000 -180 Level FlightAware
01:48AM -28.0562 117.1379 192° South 413 475 37,900 -720 Descending Aus ATC (RADAR)
01:48AM -28.1120 117.1271 192° South 409 471 37,400 120 Descending Aus ATC (RADAR)
01:48AM -28.0420 117.1590 192° South 426 490 38,000 -660 Climbing FlightAware
01:49AM -28.2225 117.1197 191° South 407 468 36,800 -1,200 Descending FlightAware ADS-B (YPPH / PER)
01:50AM -28.3024 117.1034 190° South 423 487 36,300 -600 Descending FlightAware ADS-B (YPPH / PER)
01:51AM -28.3788 117.0878 190° South 424 488 36,000 -300 Descending FlightAware ADS-B (YPPH / PER)
01:51AM -28.4368 117.0760 190° South 422 486 36,000  Level FlightAware ADS-B (YPPH / PER)
01:52AM -28.4952 117.0641 190° South 412 474 36,000  Level FlightAware ADS-B (YPPH / PER)
01:52AM -28.5530 117.0523 190° South 410 472 36,000  Level FlightAware ADS-B (YPPH / PER)
01:53AM -28.6133 117.0400 190° South 407 468 36,000  Level FlightAware ADS-B (YPPH / PER)
01:53AM -28.6887 117.0242 190° South 413 475 36,000  Level FlightAware ADS-B (YPPH / PER)
01:54AM -28.7453 117.0124 190° South 412 474 36,000  Level FlightAware ADS-B (YPPH / PER)
01:54AM -28.8018 117.0007 190° South 412 474 36,000  Level FlightAware ADS-B (YPPH / PER)
01:55AM -28.8577 116.9892 190° South 411 473 36,000  Level FlightAware ADS-B (YPPH / PER)
01:55AM -28.9137 116.9776 190° South 410 472 36,000  Level FlightAware ADS-B (YPPH / PER)
01:56AM -28.9734 116.9652 190° South 409 471 36,000  Level FlightAware ADS-B (YPPH / PER)
01:57AM -29.0464 116.9500 190° South 408 470 36,000  Level FlightAware ADS-B (YPPH / PER)
01:57AM -29.1034 116.9381 190° South 408 470 36,000  Level FlightAware ADS-B (YPPH / PER)
01:58AM -29.1772 116.9228 190° South 407 468 36,000  Level FlightAware ADS-B (YPPH / PER)
01:58AM -29.2329 116.9112 190° South 408 470 36,000  Level FlightAware ADS-B (YPPH / PER)
01:59AM -29.2893 116.8994 190° South 407 468 36,000  Level FlightAware ADS-B (YPPH / PER)
01:59AM -29.3477 116.8871 190° South 408 470 36,000  Level FlightAware ADS-B (YPPH / PER)
02:00AM -29.4022 116.8757 190° South 409 471 36,000  Level FlightAware ADS-B (YPPH / PER)
02:00AM -29.4594 116.8637 190° South 410 472 36,000  Level FlightAware ADS-B (YPPH / PER)
02:01AM -29.5150 116.8520 190° South 410 472 36,000  Level FlightAware ADS-B (YPPH / PER)
02:01AM -29.5720 116.8400 190° South 411 473 36,000  Level FlightAware ADS-B (YPPH / PER)
02:02AM -29.6282 116.8282 190° South 411 473 36,000  Level FlightAware ADS-B (YPPH / PER)
02:02AM -29.6861 116.8160 190° South 411 473 36,000  Level FlightAware ADS-B (YPPH / PER)
02:03AM -29.7443 116.8037 190° South 411 473 36,000  Level FlightAware ADS-B (YPPH / PER)
02:03AM -29.8050 116.7910 190° South 412 474 36,000  Level FlightAware ADS-B (YPPH / PER)
02:04AM -29.8616 116.7791 190° South 412 474 36,000  Level FlightAware ADS-B (YPPH / PER)
02:04AM -29.9182 116.7671 190° South 412 474 36,000  Level FlightAware ADS-B (YPPH / PER)
02:05AM -29.9745 116.7552 190° South 412 474 36,000  Level FlightAware ADS-B (YPPH / PER)
02:05AM -30.0307 116.7433 190° South 412 474 36,000  Level FlightAware ADS-B (YPPH / PER)
02:06AM -30.1054 116.7274 190° South 412 474 36,000  Level FlightAware ADS-B (YPPH / PER)
02:06AM -30.1642 116.7148 190° South 406 467 36,000  Level FlightAware ADS-B (YPPH / PER)
02:07AM -30.2387 116.6990 190° South 406 467 36,000 -300 Level FlightAware ADS-B (YPPH / PER)
02:08AM -30.3014 116.6856 190° South 406 467 35,700 -1,740 Descending FlightAware ADS-B (YPPH / PER)
02:08AM -30.3592 116.6733 190° South 426 490 34,200 -3,120 Descending FlightAware ADS-B (YPPH / PER)
02:09AM -30.4234 116.6595 190° South 423 487 32,400 -3,300 Descending FlightAware ADS-B (YPPH / PER)
02:09AM -30.4831 116.6469 190° South 428 493 30,700 -3,180 Descending FlightAware ADS-B (YPPH / PER)
02:10AM -30.5483 116.6323 191° South 434 499 29,100 -2,820 Descending FlightAware ADS-B (YPPH / PER)
02:10AM -30.6061 116.6114 197° South 425 489 27,800 -2,580 Descending FlightAware ADS-B (YPPH / PER)
02:11AM -30.6678 116.5874 198° South 424 488 26,400 -2,580 Descending FlightAware ADS-B (YPPH / PER)
02:11AM -30.7227 116.5659 199° South 408 470 25,100 -2,520 Descending FlightAware ADS-B (YPPH / PER)
02:12AM -30.7825 116.5426 199° South 406 467 23,800 -2,520 Descending FlightAware ADS-B (YPPH / PER)
02:12AM -30.8356 116.5218 199° South 393 452 22,500 -2,520 Descending FlightAware ADS-B (YPPH / PER)
02:13AM -30.8971 116.4978 199° South 395 455 21,100 -2,400 Descending FlightAware ADS-B (YPPH / PER)
02:13AM -30.9476 116.4780 199° South 390 449 19,900 -2,460 Descending FlightAware ADS-B (YPPH / PER)
02:14AM -31.0028 116.4566 198° South 387 445 18,600 -2,460 Descending FlightAware ADS-B (YPPH / PER)
02:15AM -31.0538 116.4366 199° South 377 434 17,400 -2,400 Descending FlightAware ADS-B (YPPH / PER)
02:15AM -31.1092 116.4147 199° South 371 427 16,100 -2,340 Descending FlightAware ADS-B (YPPH / PER)
02:16AM -31.1600 116.3942 199° South 374 430 14,900 -2,520 Descending Aus ATC (RADAR)
02:16AM -31.1775 116.3881 199° South 362 417 14,400 -2,520 Descending FlightAware ADS-B (YPPH / PER)
02:16AM -31.2278 116.3684 199° South 356 410 13,200 -2,340 Descending FlightAware ADS-B (YPPH / PER)
02:17AM -31.2775 116.3488 199° South 358 412 12,000 -2,340 Descending FlightAware ADS-B (YPPH / PER)
02:17AM -31.3272 116.3290 199° South 344 396 10,800 -1,560 Descending FlightAware ADS-B (YPPH / PER)
02:18AM -31.3739 116.3105 199° South 324 373 10,400 -780 Descending FlightAware ADS-B (YPPH / PER)
02:18AM -31.4166 116.2929 199° South 297 342 10,000 -1,080 Descending FlightAware ADS-B (YPPH / PER)
02:19AM -31.4405 116.2785 207° Southwest 292 336 9,500 -1,500 Descending FlightAware ADS-B (YPPH / PER)
02:19AM -31.4654 116.2626 208° Southwest 283 326 9,000 -1,560 Descending FlightAware ADS-B (YPPH / PER)
02:19AM -31.4904 116.2467 209° Southwest 279 321 8,400 -1,620 Descending FlightAware ADS-B (YPPH / PER)
02:20AM -31.5126 116.2325 209° Southwest 277 319 7,900 -1,440 Descending FlightAware ADS-B (YPPH / PER)
02:20AM -31.5393 116.2154 209° Southwest 275 316 7,400 -1,500 Descending FlightAware ADS-B (YPPH / PER)
02:20AM -31.5602 116.2020 209° Southwest 280 322 6,900 -1,620 Descending FlightAware ADS-B (YPPH / PER)
02:21AM -31.5864 116.1853 209° Southwest 278 320 6,300 -1,500 Descending FlightAware ADS-B (YPPH / PER)
02:21AM -31.6105 116.1696 209° Southwest 274 315 5,800 -1,200 Descending FlightAware ADS-B (YPPH / PER)
02:21AM -31.6303 116.1568 209° Southwest 259 298 5,500 -780 Descending FlightAware ADS-B (YPPH / PER)
02:22AM -31.6534 116.1419 209° Southwest 254 292 5,300 -600 Descending FlightAware ADS-B (YPPH / PER)
02:22AM -31.6742 116.1288 208° Southwest 242 278 5,100 -840 Descending FlightAware ADS-B (YPPH / PER)
02:22AM -31.6895 116.1190 209° Southwest 239 275 4,800 -1,080 Descending FlightAware ADS-B (YPPH / PER)
02:23AM -31.7068 116.1075 209° Southwest 226 260 4,500 -780 Descending FlightAware ADS-B (YPPH / PER)
02:23AM -31.7279 116.0943 208° Southwest 221 254 4,300 -540 Descending FlightAware ADS-B (YPPH / PER)
02:24AM -31.7478 116.0814 209° Southwest 202 232 4,100 -780 Descending FlightAware ADS-B (YPPH / PER)
02:24AM -31.7599 116.0685 222° Southwest 197 227 3,800 -840 Descending FlightAware ADS-B (YPPH / PER)
02:24AM -31.7619 116.0654 232° Southwest 193 222 3,800  Level FlightAware ADS-B (YPPH / PER)
02:24AM -31.7747 116.0456 233° Southwest 189 217 3,800 -960 Level FlightAware ADS-B (YPPH / PER)
02:25AM -31.8021 116.0050 233° Southwest 177 204 2,600 -1,380 Descending Aus ATC (RADAR)
02:25AM -31.8132 116.0016 233° Southwest 180 207 2,300 -960 Descending FlightAware ADS-B (YPPH / PER)
02:26AM -31.8537 115.9903 233° Southwest 151 174 1,500 -840 Descending Aus ATC (RADAR)
02:26AM -31.8590 115.9890 233° Southwest 131 151 1,400 -840 Descending FlightAware
02:27AM -31.8710 115.9850 196° South 136 157 1,100 -720 Descending FlightAware
02:27AM -31.8890 115.9800 193° South 132 152 800 -600 Descending FlightAware
02:28AM -31.9050 115.9750 193° South 135 155 500 -600 Descending FlightAware
02:28AM -31.9147 115.9728 193° South 137 158 400 -840 Descending Aus ATC (RADAR)
02:28AM -31.9268 115.9691 193° South 135 155 100 -900 Descending Aus ATC (RADAR)
02:28AM -31.9271 115.9689 193° South 134 154 100  Level FlightAware ADS-B (YPPH / PER)
02:29AM -31.9361 115.9663 194° South 115 132 -420 Descending FlightAware ADS-B (YPPH / PER)